Flight Track Log - Related Links

Times and Time Zones

All times are in EST time to prevent confusion due to time zone crossing. See the N91FR flight status page for this flight to view local times or setup timezone preferences in your user account.

Time Position Orientation Groundspeed Altitude Reporting Facility
EST Latitude Longitude Course Direction KTS MPH feet Rate Location/Type
Tue 12:49:00 PM 42.4350 -122.9739 240° Southwest  Level FlightAware Approximate
Tue 12:49:08 PM 42.4031 -123.0578 240° Southwest 101 116 6,100  Level Seattle Center
Tue 12:50:00 PM 42.4183 -123.0128 240° Southwest  Level FlightAware Approximate
Tue 12:50:08 PM 42.3864 -123.0897 235° Southwest 104 120 6,900  Level Seattle Center
Tue 12:51:00 PM 42.3948 -123.0436 236° Southwest  Level FlightAware Approximate
Tue 12:51:09 PM 42.3697 -123.1211 234° Southwest 103 119 7,800  Level Seattle Center
Tue 12:52:00 PM 42.3770 -123.0815 240° Southwest  Level FlightAware Approximate
Tue 12:52:10 PM 42.3514 -123.1578 236° Southwest 116 133 8,000  Level Seattle Center
Tue 12:53:00 PM 42.3603 -123.1204 240° Southwest  Level FlightAware Approximate
Tue 12:53:11 PM 42.3314 -123.1919 232° Southwest 116 133 8,000  Level Seattle Center
Tue 12:54:00 PM 42.3437 -123.1593 240° Southwest  Level FlightAware Approximate
Tue 12:54:12 PM 42.3139 -123.2292 238° Southwest 117 135 8,000  Level Seattle Center
Tue 12:55:13 PM 42.2942 -123.2661 234° Southwest 121 139 8,000  Level Seattle Center
Tue 12:56:14 PM 42.2756 -123.3011 234° Southwest 123 142 8,000  Level Seattle Center
Tue 12:57:15 PM 42.2558 -123.3406 236° Southwest 125 144 8,000  Level Seattle Center
Tue 12:58:16 PM 42.2367 -123.3775 235° Southwest 123 142 8,000  Level Seattle Center
Tue 12:59:17 PM 42.2186 -123.4144 237° Southwest 121 139 8,000  Level Seattle Center
Tue 01:00:18 PM 42.1992 -123.4522 235° Southwest 121 139 8,000  Level Seattle Center
Tue 01:01:18 PM 42.1797 -123.4897 235° Southwest 121 139 8,000  Level Seattle Center
Tue 01:02:19 PM 42.1603 -123.5339 239° Southwest 121 139 8,000  Level Seattle Center
Tue 01:03:32 PM 42.1311 -123.5817 231° Southwest 131 151 8,000  Level Seattle Center
Tue 01:04:33 PM 42.1117 -123.6136 231° Southwest 122 140 8,000  Level Seattle Center
Tue 01:05:34 PM 42.0919 -123.6519 235° Southwest 123 142 8,000  Level Seattle Center
Tue 01:06:35 PM 42.0717 -123.6917 235° Southwest 126 145 8,000  Level Seattle Center
Tue 01:07:36 PM 42.0483 -123.7367 235° Southwest 125 144 8,000  Level Seattle Center
Tue 01:08:37 PM 42.0281 -123.7728 233° Southwest 124 143 8,000  Level Seattle Center
Tue 01:09:38 PM 42.0081 -123.8094 234° Southwest 123 142 8,000  Level Seattle Center
Tue 01:10:38 PM 41.9919 -123.8414 236° Southwest 122 140 8,000  Level Seattle Center
Tue 01:16:31 PM 41.8756 -124.0600 231° Southwest 145 167 8,000  Level Seattle Center
Tue 01:17:32 PM 41.8544 -124.0900 227° Southwest 104 120 8,000 -344 Level Seattle Center
Tue 01:18:33 PM 41.8361 -124.1356 242° Southwest 126 145 7,300 -590 Descending Seattle Center
Tue 01:19:00 PM 41.8167 -124.1499 236° Southwest  Level FlightAware Approximate
Tue 01:19:34 PM 41.8117 -124.1772 232° Southwest 127 146 6,800  Level Seattle Center
Tue 01:20:00 PM 41.7951 -124.1860 231° Southwest  Level FlightAware Approximate
Tue 01:20:35 PM 41.7881 -124.2200 233° Southwest 128 147 6,500  Level Seattle Center
Tue 01:21:00 PM 41.7734 -124.2221 231° Southwest  Level FlightAware Approximate
Tue 01:21:36 PM 41.7986 -124.2678 287° West 141 162 5,400  Level Seattle Center
Tue 01:22:37 PM 41.8258 -124.3058 314° West 140 161 4,700 -639 Descending Seattle Center
Tue 01:23:38 PM 41.8550 -124.3439 316° Northwest 144 166 4,100 -639 Descending Seattle Center
Tue 01:24:39 PM 41.8839 -124.3825 315° West 146 168 3,400 -639 Descending Seattle Center
Tue 01:25:40 PM 41.9117 -124.4242 312° West 147 169 2,800 -393 Descending Seattle Center
Tue 01:26:41 PM 41.9303 -124.4661 301° West 139 160 2,600 -98 Descending Seattle Center
Tue 01:27:42 PM 41.9400 -124.5061 288° West 124 143 2,600  Level Seattle Center
Tue 01:28:43 PM 41.9625 -124.5286 323° Northwest 119 137 2,600  Level Seattle Center
Tue 01:29:44 PM 41.9589 -124.4911 97° East 118 136 2,600  Level Seattle Center
Tue 01:30:45 PM 41.9392 -124.4639 134° Southeast 107 123 2,600  Level Seattle Center
Tue 01:31:46 PM 41.9186 -124.4344 133° Southeast 107 123 2,600  Level Seattle Center
Tue 01:32:47 PM 41.8947 -124.3983 132° Southeast 107 123 2,600  Level Seattle Center
Tue 01:33:48 PM 41.8744 -124.3700 134° Southeast 107 123 2,600 -197 Level Seattle Center
Tue 01:34:49 PM 41.8536 -124.3411 134° Southeast 107 123 2,200 -492 Descending Seattle Center
Tue 01:35:50 PM 41.8339 -124.3114 132° Southeast 107 123 1,600 -590 Descending Seattle Center
Tue 01:36:51 PM 41.8164 -124.2842 131° Southeast 104 120 1,000 -492 Descending Seattle Center
Tue 01:37:52 PM 41.8033 -124.2644 132° Southeast 90 104 600 -344 Descending Seattle Center
Tue 01:38:53 PM 41.7897 -124.2475 137° Southeast 79 91 300 49 Descending Seattle Center
Tue 01:39:54 PM 41.7742 -124.2281 137° Southeast 76 87 700 639 Climbing Seattle Center
Tue 01:40:55 PM 41.7483 -124.2303 184° South 88 101 1,600 893 Climbing Seattle Center
Tue 01:41:55 PM 41.7244 -124.2325 184° South 89 102 2,500 694 Climbing Seattle Center
Tue 01:42:56 PM 41.6983 -124.2331 181° South 90 104 3,000 246 Climbing Seattle Center
Tue 01:43:57 PM 41.6989 -124.2633 271° West 114 131 3,000  Level Seattle Center
Tue 01:44:58 PM 41.7364 -124.2528 12° North 131 151 3,000  Level Seattle Center
Tue 01:45:59 PM 41.7806 -124.2403 12° North 135 155 3,000  Level Seattle Center
Tue 01:47:01 PM 41.8047 -124.2772 311° West 139 160 3,000  Level Seattle Center
Tue 01:48:02 PM 41.8308 -124.3108 316° Northwest 135 155 3,000  Level Seattle Center
Tue 01:49:03 PM 41.8547 -124.3453 313° West 130 150 3,000 98 Level Seattle Center
Tue 01:50:04 PM 41.8803 -124.3800 315° West 130 150 3,200 541 Climbing Seattle Center
Tue 01:51:05 PM 41.9050 -124.4122 316° Northwest 129 148 4,100 836 Climbing Seattle Center
Tue 01:52:06 PM 41.9269 -124.4406 316° Northwest 121 139 4,900 885 Climbing Seattle Center
Tue 01:53:07 PM 41.9492 -124.4678 318° Northwest 115 132 5,900 934 Climbing Seattle Center
Tue 01:54:08 PM 41.9828 -124.4675 360° North 123 142 6,800 836 Climbing Seattle Center
Tue 01:55:09 PM 42.0139 -124.4694 357° North 119 137 7,600 590 Climbing Seattle Center
Tue 01:56:10 PM 42.0503 -124.4722 357° North 122 140 8,000 197 Climbing Seattle Center
Tue 01:57:11 PM 42.0978 -124.4703 North 135 155 8,000  Level Seattle Center
Tue 01:58:12 PM 42.1389 -124.4689 North 142 163 8,000  Level Seattle Center
Tue 01:59:13 PM 42.1786 -124.4597 10° North 143 165 8,000  Level Seattle Center
Tue 02:00:14 PM 42.2183 -124.4467 14° North 144 166 8,000  Level Seattle Center
Tue 02:01:15 PM 42.2583 -124.4333 14° North 146 168 8,000  Level Seattle Center
Tue 02:02:16 PM 42.2992 -124.4200 14° North 148 170 8,000  Level Seattle Center
Tue 02:03:17 PM 42.3389 -124.4089 12° North 148 170 8,000  Level Seattle Center
Tue 02:04:18 PM 42.3803 -124.3972 12° North 150 173 8,000  Level Seattle Center
Tue 02:05:19 PM 42.4208 -124.3856 12° North 150 173 8,000  Level Seattle Center
Tue 02:06:20 PM 42.4611 -124.3750 11° North 149 171 8,000  Level Seattle Center
Tue 02:07:21 PM 42.5014 -124.3636 12° North 148 170 8,000  Level Seattle Center
Tue 02:08:22 PM 42.5417 -124.3522 12° North 149 171 8,000  Level Seattle Center
Tue 02:09:23 PM 42.5903 -124.3389 11° North 149 171 8,000  Level Seattle Center
Tue 02:10:24 PM 42.6306 -124.3258 13° North 149 171 8,000  Level Seattle Center
Tue 02:11:25 PM 42.6708 -124.3144 12° North 148 170 8,000 -49 Level Seattle Center
Tue 02:12:26 PM 42.7111 -124.2997 15° North 149 171 7,900 -49 Descending Seattle Center
Tue 02:13:27 PM 42.7492 -124.2922 North 151 174 7,900  Level Seattle Center
Tue 02:14:28 PM 42.7922 -124.2761 15° North 149 171 7,900  Level Seattle Center
Tue 02:15:29 PM 42.8333 -124.2639 12° North 150 173 7,900  Level Seattle Center
Tue 02:16:30 PM 42.8725 -124.2558 North 146 168 7,900  Level Seattle Center
Tue 02:17:31 PM 42.9139 -124.2447 11° North 150 173 7,900 49 Level Seattle Center
Tue 02:18:32 PM 42.9589 -124.2319 12° North 150 173 8,000  Climbing Seattle Center
Tue 02:19:33 PM 42.9997 -124.2203 12° North 150 173 7,900 -295 Descending Seattle Center
Tue 02:20:34 PM 43.0431 -124.2108 North 156 180 7,400 -492 Descending Seattle Center
Tue 02:21:35 PM 43.0858 -124.2011 North 156 180 6,900 -492 Descending Seattle Center
Tue 02:22:36 PM 43.1289 -124.1856 15° North 159 183 6,400 -248 Descending Seattle Center
Tue 02:23:36 PM 43.1517 -124.2189 313° West 139 160 6,400 -50 Level Seattle Center
Tue 02:24:37 PM 43.1567 -124.2594 280° West 116 133 6,300 -344 Descending Seattle Center
Tue 02:25:38 PM 43.1664 -124.3011 288° West 114 131 5,700 -541 Descending Seattle Center
Tue 02:26:39 PM 43.1817 -124.3453 295° West 121 139 5,200 -541 Descending Seattle Center
Tue 02:27:40 PM 43.2036 -124.3878 305° West 128 147 4,600 -639 Descending Seattle Center
Tue 02:28:41 PM 43.2283 -124.4289 310° West 133 153 3,900 -689 Descending Seattle Center
Tue 02:30:00 PM 43.2558 -124.4025 299° West  Level Estimated
Tue 02:37:00 PM 43.3617 -124.3457 61° Northeast  Level FlightAware Approximate
Tue 02:38:00 PM 43.3753 -124.3161 55° Northeast  Level FlightAware Approximate
Tue 02:39:00 PM 43.3897 -124.2873 55° Northeast  Level FlightAware Approximate
Tue 02:40:00 PM 43.4042 -124.2584 55° Northeast  Level FlightAware Approximate
Tue 02:41:00 PM 43.4167 -124.2333 55° Northeast  Level FlightAware Approximate
Tue 02:42:00 PM 43.4169 -124.2470 55° Northeast  Level Estimated

Login

Don't have an account? Register now (free) for customized features, flight alerts, and more!